Misawa Air Base Misawa JP
ICAO: RJSM
IATA:
Category: Medium
Scheduled Services:

Elevation: 119 ft
TransAlt. 14000 ft.

Airport Communications:
APP:120.7
ATIS:128.4
CLNC DEL:118.65
DEP:125.3
GND:118.65
DRAUGHON RANGE CON:36.54
METRO:34.46
COMD POST:141.6
PTD:131.45
TCA:124.05
TWR:125.3

RJSM Zoom In..

If you have problems with the map follow the link
https://www.worldairports.se/pages/airport.php?
ICAO=RJSM

Runways:

(A) RW 10 length 10007 ft width 148 ft
ILS 109.70 / hdg 104

(B) RW 28 length 10007 ft width 148 ft
ILS 109.70 / hdg 284

Location; RJSM
Day. 13 / Time. 20.00 Zulu
* QNH: 1015
* Temperature: -01° c. -30.2°f.
* Wind from: 260° Speed 07 kn.
Dewpoint: -01° c.
Visibility: 3000 m.
Clouds: Few 200 ft.
Clouds: Scattered 300 ft.
Clouds: Broken 2000 ft.
Conditions: Light Snow.Conditions: Mist.

RJSM 132000Z 26007KT 3000 -SN BR FEW002 SCT003 BKN020 M01/M01 Q1015


Wind From 260°
Speed 07 kn.

 
 
jpsmedia.com for Web Design worldairports.se 2018   terms of use